Time;durP1;ratioP1;P1;durP2;ratioP2;P2;SDS_P1;SDS_P2;PMS_P1;PMS_P2;Temp;Humidity;BMP_temperature;BMP_pressure;BME280_temperature;BME280_humidity;BME280_pressure;Samples;Min_cycle;Max_cycle;Signal;HPM_P1;HPM_P2
2023/03/26 00:00:44;;;;;;;2.53;1.13;;;7.20;99.90;;;;;;5111875;28;20751;-42
2023/03/26 00:03:11;;;;;;;3.20;1.23;;;7.20;99.90;;;;;;5093028;28;20192;-43
2023/03/26 00:05:38;;;;;;;2.97;1.20;;;7.20;99.90;;;;;;5111992;28;20184;-43
2023/03/26 00:08:07;;;;;;;3.50;1.00;;;7.20;99.90;;;;;;5111748;28;20192;-42
2023/03/26 00:10:35;;;;;;;3.70;1.60;;;7.20;99.90;;;;;;5111246;28;20211;-41
2023/03/26 00:13:02;;;;;;;3.40;1.50;;;7.30;99.90;;;;;;5112001;28;20233;-42
2023/03/26 00:15:28;;;;;;;2.70;1.50;;;7.30;99.90;;;;;;5111464;28;20183;-42
2023/03/26 00:17:55;;;;;;;3.40;1.53;;;7.30;99.90;;;;;;5111873;28;20176;-42
2023/03/26 00:20:21;;;;;;;5.27;1.80;;;7.40;99.90;;;;;;5093411;28;20195;-42
2023/03/26 00:22:49;;;;;;;3.07;1.43;;;7.40;99.90;;;;;;5093143;28;20199;-42
2023/03/26 00:25:15;;;;;;;4.67;1.47;;;7.50;99.90;;;;;;5093127;28;20195;-42
2023/03/26 00:27:44;;;;;;;2.60;1.23;;;7.40;99.90;;;;;;5111639;28;20644;-43
2023/03/26 00:30:10;;;;;;;4.10;1.30;;;7.40;99.90;;;;;;5093419;28;20310;-42
2023/03/26 00:32:36;;;;;;;5.23;1.47;;;7.40;99.90;;;;;;5093642;28;20187;-42
2023/03/26 00:35:03;;;;;;;2.03;1.13;;;7.40;99.90;;;;;;5092995;28;20197;-42
2023/03/26 00:37:29;;;;;;;3.43;1.00;;;7.40;99.90;;;;;;5092975;28;20666;-40
2023/03/26 00:40:03;;;;;;;2.50;1.43;;;7.30;99.90;;;;;;5111162;28;20225;-42
2023/03/26 00:42:29;;;;;;;3.70;1.40;;;7.30;99.90;;;;;;5102976;28;20207;-42
2023/03/26 00:44:56;;;;;;;4.97;2.57;;;7.30;99.90;;;;;;5108493;28;20175;-42
2023/03/26 00:47:23;;;;;;;7.43;2.90;;;7.30;99.90;;;;;;5110248;28;20168;-43
2023/03/26 00:49:49;;;;;;;9.20;3.60;;;7.30;99.90;;;;;;5092739;28;20232;-42
2023/03/26 00:52:19;;;;;;;5.70;3.30;;;7.30;99.90;;;;;;5093016;28;20178;-42
2023/03/26 00:54:45;;;;;;;5.97;3.67;;;7.30;99.90;;;;;;5092275;28;20197;-42
2023/03/26 00:57:12;;;;;;;4.03;3.03;;;7.20;99.90;;;;;;5110134;28;20176;-43
2023/03/26 00:59:39;;;;;;;4.07;2.50;;;7.20;99.90;;;;;;5092953;28;20200;-42
2023/03/26 01:02:06;;;;;;;3.80;2.00;;;7.20;99.90;;;;;;5092945;28;20298;-42
2023/03/26 01:04:34;;;;;;;2.90;1.60;;;7.20;99.90;;;;;;5109998;28;20179;-40
2023/03/26 01:07:03;;;;;;;2.80;1.80;;;7.20;99.90;;;;;;5099655;28;20217;-42
2023/03/26 01:09:33;;;;;;;2.40;1.47;;;7.30;99.90;;;;;;5099344;28;20214;-42
2023/03/26 01:12:01;;;;;;;3.20;1.80;;;7.30;99.90;;;;;;5116300;28;20553;-42
2023/03/26 01:14:28;;;;;;;1.50;1.10;;;7.20;99.90;;;;;;5118347;28;20172;-41
2023/03/26 01:17:00;;;;;;;4.93;1.30;;;7.20;99.90;;;;;;5117646;28;20179;-42
2023/03/26 01:19:47;;;;;;;3.30;1.27;;;7.20;99.90;;;;;;5099340;28;20209;-42
2023/03/26 01:22:17;;;;;;;2.03;1.20;;;7.20;99.90;;;;;;5117022;22;20212;-38
2023/03/26 01:24:51;;;;;;;3.50;1.20;;;7.20;99.90;;;;;;5079051;28;20191;-38
2023/03/26 01:27:53;;;;;;;2.60;1.30;;;7.10;99.90;;;;;;5085928;28;20171;-37
2023/03/26 01:30:40;;;;;;;2.10;1.00;;;7.10;99.90;;;;;;5079191;28;20257;-39
2023/03/26 01:33:18;;;;;;;3.70;1.00;;;7.00;99.90;;;;;;5069211;28;20555;-37
2023/03/26 01:35:59;;;;;;;4.33;1.13;;;7.00;99.90;;;;;;5075771;28;20181;-38
2023/03/26 01:38:53;;;;;;;2.63;1.20;;;7.00;99.90;;;;;;5073045;28;20172;-38
2023/03/26 01:41:50;;;;;;;2.10;1.03;;;7.00;99.90;;;;;;5093468;28;20200;-36
2023/03/26 01:44:43;;;;;;;3.17;1.40;;;7.00;99.90;;;;;;5095813;28;20209;-36
2023/03/26 01:47:10;;;;;;;2.33;0.97;;;6.90;99.90;;;;;;5094652;28;20266;-37
2023/03/26 01:49:36;;;;;;;3.00;1.30;;;6.90;99.90;;;;;;5093759;28;20175;-37
2023/03/26 01:52:05;;;;;;;1.23;1.07;;;6.80;99.90;;;;;;5075588;28;20286;-39
2023/03/26 01:54:31;;;;;;;2.17;1.10;;;6.80;99.90;;;;;;5072131;28;20204;-36
2023/03/26 01:57:05;;;;;;;3.00;1.30;;;6.80;99.90;;;;;;5072358;28;20184;-36
2023/03/26 01:59:55;;;;;;;4.40;1.37;;;6.80;99.90;;;;;;5090427;28;20183;-38
2023/03/26 02:02:30;;;;;;;3.77;1.30;;;6.80;99.90;;;;;;5060058;28;20211;-36
2023/03/26 02:05:06;;;;;;;1.73;1.00;;;6.80;99.90;;;;;;5080789;28;20191;-36
2023/03/26 02:07:43;;;;;;;4.30;1.50;;;6.80;99.90;;;;;;5090882;28;20671;-36
2023/03/26 02:10:15;;;;;;;4.60;1.60;;;6.80;99.90;;;;;;5077035;28;20244;-37
2023/03/26 02:12:43;;;;;;;3.40;1.37;;;6.80;99.90;;;;;;5059244;28;20208;-36
2023/03/26 02:15:10;;;;;;;3.33;1.57;;;6.80;99.90;;;;;;5059037;28;20192;-37
2023/03/26 02:17:39;;;;;;;3.30;1.33;;;6.80;99.90;;;;;;5085735;28;20184;-36
2023/03/26 02:20:10;;;;;;;3.27;1.20;;;6.80;99.90;;;;;;5092360;28;20219;-38
2023/03/26 02:22:40;;;;;;;1.80;1.20;;;6.80;99.90;;;;;;5068511;28;20221;-35
2023/03/26 02:25:09;;;;;;;5.13;1.30;;;6.80;99.90;;;;;;5055762;28;20223;-37
2023/03/26 02:27:36;;;;;;;3.33;1.50;;;6.80;99.90;;;;;;5074698;28;20599;-37
2023/03/26 02:30:05;;;;;;;3.20;1.17;;;6.80;99.90;;;;;;5092503;28;20255;-37
2023/03/26 02:32:31;;;;;;;2.43;1.20;;;6.80;99.90;;;;;;5087721;28;20632;-37
2023/03/26 02:34:57;;;;;;;2.70;1.03;;;6.70;99.90;;;;;;5058324;28;20641;-37
2023/03/26 02:37:23;;;;;;;3.47;1.30;;;6.70;99.90;;;;;;5072264;28;20205;-37
2023/03/26 02:40:04;;;;;;;3.93;1.40;;;6.70;99.90;;;;;;5055477;28;20211;-37
2023/03/26 02:42:31;;;;;;;5.57;1.90;;;6.70;99.90;;;;;;5071730;28;20206;-36
2023/03/26 02:44:57;;;;;;;5.17;1.47;;;6.70;99.90;;;;;;5072033;28;20180;-37
2023/03/26 02:47:44;;;;;;;4.13;1.37;;;6.70;99.90;;;;;;5060163;28;20266;-37
2023/03/26 02:50:36;;;;;;;5.10;1.40;;;6.60;99.90;;;;;;5063952;28;20244;-36
2023/03/26 02:53:29;;;;;;;2.07;1.20;;;6.60;99.90;;;;;;5072095;28;20194;-38
2023/03/26 02:56:12;;;;;;;4.30;1.23;;;6.50;99.90;;;;;;5054725;28;20184;-35
2023/03/26 02:58:48;;;;;;;4.47;1.50;;;6.60;99.90;;;;;;5066099;28;20179;-35
2023/03/26 03:01:17;;;;;;;4.83;1.23;;;6.40;99.90;;;;;;5072844;28;20257;-36
2023/03/26 03:03:50;;;;;;;3.17;1.20;;;6.30;99.90;;;;;;5072330;28;20204;-38
2023/03/26 03:06:33;;;;;;;8.03;2.70;;;6.30;99.90;;;;;;5068914;28;20265;-36
2023/03/26 03:09:01;;;;;;;4.80;2.10;;;6.20;99.90;;;;;;5075740;28;20731;-36
2023/03/26 03:11:39;;;;;;;4.67;2.07;;;6.30;99.90;;;;;;5071717;28;20261;-36
2023/03/26 03:14:06;;;;;;;4.03;1.50;;;6.30;99.90;;;;;;5052819;28;20207;-37
2023/03/26 03:16:33;;;;;;;3.80;1.43;;;6.40;99.90;;;;;;5055014;28;20208;-36
2023/03/26 03:19:05;;;;;;;1.83;1.10;;;6.40;99.90;;;;;;5073330;28;20190;-36
2023/03/26 03:21:38;;;;;;;4.10;1.13;;;6.50;99.90;;;;;;5066721;28;20200;-36
2023/03/26 03:24:05;;;;;;;1.97;1.50;;;6.60;99.90;;;;;;5070953;28;20179;-36
2023/03/26 03:26:41;;;;;;;3.57;1.47;;;6.60;99.90;;;;;;5087818;28;20176;-37
2023/03/26 03:29:18;;;;;;;3.10;1.30;;;6.60;99.90;;;;;;5085669;28;20179;-38
2023/03/26 03:31:44;;;;;;;5.00;1.70;;;6.60;99.90;;;;;;5067361;28;20184;-35
2023/03/26 03:34:24;;;;;;;2.57;1.40;;;6.60;99.90;;;;;;5059248;28;20187;-36
2023/03/26 03:36:50;;;;;;;1.37;1.10;;;6.50;99.90;;;;;;5068922;28;20238;-37
2023/03/26 03:39:43;;;;;;;1.50;1.10;;;6.40;99.90;;;;;;5089953;28;20655;-36
2023/03/26 03:42:11;;;;;;;4.70;1.47;;;6.40;99.90;;;;;;5069145;28;20204;-37
2023/03/26 03:44:37;;;;;;;2.13;1.20;;;6.30;99.90;;;;;;5070163;28;20186;-37
2023/03/26 03:47:12;;;;;;;4.10;1.20;;;6.30;99.90;;;;;;5087728;28;20246;-36
2023/03/26 03:49:39;;;;;;;3.13;1.27;;;6.20;99.90;;;;;;5055289;28;20576;-38
2023/03/26 03:52:06;;;;;;;4.40;1.40;;;6.30;99.90;;;;;;5053818;28;20207;-37
2023/03/26 03:54:37;;;;;;;4.83;2.07;;;6.20;99.90;;;;;;5071605;28;20177;-36
2023/03/26 03:57:09;;;;;;;9.63;2.93;;;6.20;99.90;;;;;;5054989;28;20247;-38
2023/03/26 03:59:41;;;;;;;6.60;2.03;;;6.10;99.90;;;;;;5088573;28;20232;-36
2023/03/26 04:02:10;;;;;;;6.50;2.60;;;6.10;99.90;;;;;;5071634;28;20206;-37
2023/03/26 04:04:49;;;;;;;4.07;1.87;;;6.10;99.90;;;;;;5073670;28;20246;-36
2023/03/26 04:07:16;;;;;;;3.23;1.53;;;6.10;99.90;;;;;;5072259;28;20262;-37
2023/03/26 04:10:02;;;;;;;10.27;4.67;;;6.10;99.90;;;;;;5077346;28;20198;-37
2023/03/26 04:12:41;;;;;;;4.43;1.97;;;6.10;99.90;;;;;;5070827;28;20682;-37
2023/03/26 04:15:12;;;;;;;15.07;6.80;;;6.20;99.90;;;;;;5069991;28;20182;-39
2023/03/26 04:17:41;;;;;;;5.73;2.67;;;6.20;99.90;;;;;;5071371;28;20262;-36
2023/03/26 04:20:13;;;;;;;4.43;2.37;;;6.20;99.90;;;;;;5069979;28;20266;-36
2023/03/26 04:22:42;;;;;;;6.77;2.07;;;6.20;99.90;;;;;;5069699;28;20261;-36
2023/03/26 04:25:11;;;;;;;7.60;2.57;;;6.20;99.90;;;;;;5046504;28;20231;-36
2023/03/26 04:27:46;;;;;;;4.60;2.43;;;6.20;99.90;;;;;;5056857;28;20179;-36
2023/03/26 04:30:23;;;;;;;4.50;2.33;;;6.30;99.90;;;;;;5054380;28;20270;-36
2023/03/26 04:33:14;;;;;;;3.33;2.07;;;6.40;99.90;;;;;;5086250;28;20203;-36
2023/03/26 04:35:43;;;;;;;3.10;2.07;;;6.40;99.90;;;;;;5073157;28;20213;-37
2023/03/26 04:38:11;;;;;;;5.93;2.20;;;6.40;99.90;;;;;;5071712;28;20187;-37
2023/03/26 04:40:46;;;;;;;4.57;2.27;;;6.50;99.90;;;;;;5079098;28;20199;-36
2023/03/26 04:43:16;;;;;;;4.20;2.10;;;6.50;99.90;;;;;;5071086;28;20222;-36
2023/03/26 04:46:04;;;;;;;3.70;2.10;;;6.60;99.90;;;;;;5057183;28;20198;-36
2023/03/26 04:48:37;;;;;;;3.23;1.60;;;6.60;99.90;;;;;;5074654;28;20187;-36
2023/03/26 04:51:06;;;;;;;4.20;1.90;;;6.70;99.90;;;;;;5065052;28;20179;-37
2023/03/26 04:53:34;;;;;;;6.77;2.10;;;6.70;99.90;;;;;;5071900;28;20204;-36
2023/03/26 04:56:25;;;;;;;4.40;1.90;;;6.70;99.90;;;;;;5077836;28;20187;-36
2023/03/26 04:59:24;;;;;;;2.40;2.00;;;6.70;99.90;;;;;;5085063;28;20515;-36
2023/03/26 05:01:52;;;;;;;3.87;1.97;;;6.70;99.90;;;;;;5085770;28;20203;-36
2023/03/26 05:04:18;;;;;;;6.03;1.90;;;6.70;99.90;;;;;;5071199;28;20176;-36
2023/03/26 05:06:44;;;;;;;2.90;1.87;;;6.70;99.90;;;;;;5071340;28;20645;-39
2023/03/26 05:09:26;;;;;;;3.83;1.97;;;6.60;99.90;;;;;;5087651;28;20188;-39
2023/03/26 05:12:13;;;;;;;4.13;2.03;;;6.60;99.90;;;;;;5084590;28;20242;-36
2023/03/26 05:14:56;;;;;;;3.93;1.97;;;6.60;99.90;;;;;;5072137;28;20181;-36
2023/03/26 05:17:40;;;;;;;4.43;2.00;;;6.50;99.90;;;;;;5089590;28;20735;-38
2023/03/26 05:20:29;;;;;;;4.37;1.77;;;6.40;99.90;;;;;;5070360;28;20179;-38
2023/03/26 05:22:55;;;;;;;4.30;1.73;;;6.30;99.90;;;;;;5085959;28;20207;-35
2023/03/26 05:25:27;;;;;;;2.50;1.50;;;6.20;99.90;;;;;;5061111;28;20176;-38
2023/03/26 05:27:54;;;;;;;4.60;2.03;;;6.30;99.90;;;;;;5067199;28;20176;-39
2023/03/26 05:30:23;;;;;;;3.43;1.60;;;6.30;99.90;;;;;;5068392;28;20175;-39
2023/03/26 05:32:54;;;;;;;5.77;1.70;;;6.40;99.90;;;;;;5068669;28;20204;-41
2023/03/26 05:35:25;;;;;;;5.37;1.90;;;6.40;99.90;;;;;;5068566;28;20184;-43
2023/03/26 05:37:51;;;;;;;5.73;1.90;;;6.40;99.90;;;;;;5046081;28;20275;-38
2023/03/26 05:40:21;;;;;;;4.60;1.80;;;6.40;99.90;;;;;;5070935;28;20206;-40
2023/03/26 05:42:52;;;;;;;3.00;1.50;;;6.40;99.90;;;;;;5062792;28;20297;-40
2023/03/26 05:45:41;;;;;;;2.53;2.00;;;6.50;99.90;;;;;;5050272;28;20191;-40
2023/03/26 05:48:22;;;;;;;5.97;1.90;;;6.50;99.90;;;;;;5078817;28;20183;-41
2023/03/26 05:50:53;;;;;;;3.07;2.10;;;6.40;99.90;;;;;;5077717;28;20210;-39
2023/03/26 05:53:20;;;;;;;4.83;2.00;;;6.40;99.90;;;;;;5078848;28;20200;-41
2023/03/26 05:56:05;;;;;;;3.60;1.77;;;6.50;99.90;;;;;;5072925;28;20199;-41
2023/03/26 05:58:50;;;;;;;4.60;1.90;;;6.50;99.90;;;;;;5093648;28;20555;-38
2023/03/26 06:01:43;;;;;;;4.20;1.87;;;6.50;99.90;;;;;;5062712;28;20204;-40
2023/03/26 06:04:39;;;;;;;3.80;2.00;;;6.50;99.90;;;;;;5058440;28;20176;-44
2023/03/26 06:07:32;;;;;;;8.10;2.53;;;6.50;99.90;;;;;;5045640;28;20176;-42
2023/03/26 06:10:13;;;;;;;6.53;2.20;;;6.50;99.90;;;;;;5074822;28;20172;-42
2023/03/26 06:12:40;;;;;;;3.33;1.90;;;6.50;99.90;;;;;;5074956;28;20206;-41
2023/03/26 06:15:07;;;;;;;5.33;2.50;;;6.50;99.90;;;;;;5074051;28;20187;-38
2023/03/26 06:18:00;;;;;;;3.37;1.90;;;6.50;99.90;;;;;;5075592;28;20277;-38
2023/03/26 06:20:52;;;;;;;2.30;1.77;;;6.50;99.90;;;;;;5085760;28;20172;-37
2023/03/26 06:23:38;;;;;;;3.73;2.10;;;6.50;99.90;;;;;;5067735;28;20235;-36
2023/03/26 06:26:09;;;;;;;3.30;1.83;;;6.50;99.90;;;;;;5046835;28;20264;-37
2023/03/26 06:28:44;;;;;;;2.63;2.20;;;6.60;99.90;;;;;;5087969;28;20274;-36
2023/03/26 06:31:30;;;;;;;3.37;1.80;;;6.60;99.90;;;;;;5057384;28;20178;-37
2023/03/26 06:34:12;;;;;;;4.73;2.40;;;6.60;99.90;;;;;;5074670;28;20659;-40
2023/03/26 06:36:38;;;;;;;2.83;2.00;;;6.60;99.90;;;;;;5075257;28;20200;-37
2023/03/26 06:39:05;;;;;;;4.93;1.90;;;6.70;99.90;;;;;;5072081;28;20215;-37
2023/03/26 06:41:33;;;;;;;4.63;1.80;;;6.70;99.90;;;;;;5057865;28;20211;-38
2023/03/26 06:44:10;;;;;;;3.77;1.60;;;6.70;99.90;;;;;;5067570;28;20178;-37
2023/03/26 06:47:05;;;;;;;5.83;1.70;;;6.70;99.90;;;;;;5073501;28;20176;-37
2023/03/26 06:50:03;;;;;;;3.60;1.63;;;6.70;99.90;;;;;;5060318;28;20208;-36
2023/03/26 06:52:49;;;;;;;4.43;1.80;;;6.80;99.90;;;;;;5053970;28;20238;-36
2023/03/26 06:55:41;;;;;;;2.93;1.60;;;6.70;99.90;;;;;;5065125;28;20180;-37
2023/03/26 06:58:27;;;;;;;3.30;2.00;;;6.70;99.90;;;;;;5061629;28;20187;-37
2023/03/26 07:00:54;;;;;;;6.43;2.27;;;6.70;99.90;;;;;;5091891;28;20182;-38
2023/03/26 07:03:40;;;;;;;8.50;2.47;;;6.70;99.90;;;;;;5079127;28;20287;-37
2023/03/26 07:06:24;;;;;;;3.17;2.00;;;6.70;99.90;;;;;;5073465;28;20253;-40
2023/03/26 07:09:08;;;;;;;3.57;1.87;;;6.60;99.90;;;;;;5058920;28;20191;-37
2023/03/26 07:11:43;;;;;;;3.10;1.70;;;6.60;99.90;;;;;;5073024;28;20572;-36
2023/03/26 07:14:29;;;;;;;4.17;1.80;;;6.60;99.90;;;;;;5063573;28;20225;-36
2023/03/26 07:17:07;;;;;;;4.07;1.73;;;6.70;99.90;;;;;;5054537;28;20193;-37
2023/03/26 07:19:53;;;;;;;3.53;1.90;;;6.70;99.90;;;;;;5072219;28;20208;-36
2023/03/26 07:23:09;;;;;;;5.80;2.40;;;6.80;99.90;;;;;;5071215;23;20214;-90
2023/03/26 08:01:03;;;;;;;6.27;3.47;;;7.50;99.90;;;;;;4991750;28;20186;-91
2023/03/26 08:03:47;;;;;;;9.57;2.80;;;7.60;99.90;;;;;;4995110;28;20241;-90
2023/03/26 08:06:23;;;;;;;7.40;2.70;;;7.60;99.90;;;;;;5072119;28;20295;-91
2023/03/26 08:28:47;;;;;;;6.50;3.10;;;7.80;99.90;;;;;;5084344;28;20211;-91
2023/03/26 08:32:38;;;;;;;9.00;3.93;;;7.80;99.90;;;;;;5070449;28;20286;-91
2023/03/26 09:02:49;;;;;;;7.20;3.60;;;8.00;99.90;;;;;;5043324;28;20350;-90
2023/03/26 09:09:51;;;;;;;4.43;2.20;;;8.10;99.90;;;;;;5021181;28;20191;-90
2023/03/26 09:12:41;;;;;;;6.47;3.50;;;8.30;99.90;;;;;;5013047;28;20276;-90
2023/03/26 09:15:31;;;;;;;9.37;3.60;;;8.50;99.90;;;;;;4996563;28;20248;-90
2023/03/26 09:18:14;;;;;;;8.40;4.10;;;8.60;99.90;;;;;;4996764;28;20266;-90
2023/03/26 09:20:59;;;;;;;7.97;4.20;;;8.60;99.90;;;;;;4993522;28;20262;-90
2023/03/26 09:23:30;;;;;;;8.30;3.80;;;8.60;99.90;;;;;;5011905;28;20202;-91
2023/03/26 09:26:11;;;;;;;6.47;4.63;;;8.70;99.90;;;;;;5007493;28;20198;-91
2023/03/26 09:29:36;;;;;;;7.47;3.50;;;8.70;99.90;;;;;;5016829;28;20182;-91
2023/03/26 09:32:16;;;;;;;4.27;2.20;;;8.80;99.90;;;;;;5001035;28;20190;-91
2023/03/26 09:35:19;;;;;;;4.13;1.90;;;8.90;99.90;;;;;;5016801;28;20194;-90
2023/03/26 09:37:50;;;;;;;3.70;1.90;;;9.00;99.90;;;;;;5001103;28;20175;-90
2023/03/26 09:41:01;;;;;;;3.73;1.80;;;9.10;99.90;;;;;;5070098;28;20180;-90
2023/03/26 09:48:34;;;;;;;3.47;1.40;;;9.30;99.90;;;;;;5103903;28;20228;-90
2023/03/26 09:51:39;;;;;;;2.57;1.33;;;9.40;99.90;;;;;;5101837;28;20192;-90
2023/03/26 09:54:43;;;;;;;2.90;1.43;;;9.50;99.90;;;;;;5076645;28;20554;-90
2023/03/26 09:57:42;;;;;;;5.00;1.77;;;9.50;99.90;;;;;;5057790;28;20211;-90
2023/03/26 10:00:27;;;;;;;1.50;0.80;;;9.50;99.90;;;;;;5040614;28;20523;-91
2023/03/26 10:03:27;;;;;;;1.40;0.80;;;9.40;99.90;;;;;;5076981;28;20199;-90
2023/03/26 10:06:15;;;;;;;0.70;0.70;;;9.30;99.90;;;;;;5079821;28;20200;-90
2023/03/26 10:12:55;;;;;;;1.50;1.20;;;9.10;99.90;;;;;;5096039;28;20198;-90
2023/03/26 10:15:34;;;;;;;0.80;0.80;;;9.00;99.90;;;;;;5060526;28;20291;-89
2023/03/26 10:18:13;;;;;;;0.70;0.70;;;9.00;99.90;;;;;;5077336;28;20196;-90
2023/03/26 10:20:58;;;;;;;0.97;0.80;;;9.00;99.90;;;;;;5081558;28;20172;-91
2023/03/26 10:23:59;;;;;;;1.03;0.70;;;9.10;99.90;;;;;;5080669;28;20176;-89
2023/03/26 10:26:48;;;;;;;1.07;0.70;;;9.40;99.90;;;;;;5056734;28;20253;-91
2023/03/26 10:29:32;;;;;;;1.00;0.70;;;9.80;99.90;;;;;;5078366;28;20176;-90
2023/03/26 10:32:01;;;;;;;1.37;0.90;;;10.00;99.90;;;;;;5060877;28;20169;-90
2023/03/26 10:34:59;;;;;;;0.80;0.70;;;10.20;99.90;;;;;;5095472;28;20188;-90
2023/03/26 10:37:31;;;;;;;0.80;0.80;;;10.40;99.90;;;;;;5060203;28;20177;-90
2023/03/26 10:40:08;;;;;;;0.93;0.60;;;10.70;99.90;;;;;;5094649;28;20188;-90
2023/03/26 10:43:03;;;;;;;0.73;0.73;;;11.10;99.90;;;;;;5059462;28;20200;-90
2023/03/26 10:45:49;;;;;;;0.90;0.70;;;11.30;99.90;;;;;;5097383;28;20200;-90
2023/03/26 10:48:24;;;;;;;2.23;0.80;;;11.40;99.90;;;;;;5092865;28;20640;-90
2023/03/26 10:51:25;;;;;;;1.03;0.80;;;11.30;99.90;;;;;;5059571;28;20412;-91
2023/03/26 10:54:00;;;;;;;1.43;0.67;;;11.10;99.90;;;;;;5076274;28;20218;-90
2023/03/26 10:56:50;;;;;;;1.20;0.90;;;10.80;99.90;;;;;;5057863;28;20208;-90
2023/03/26 10:59:18;;;;;;;1.87;0.80;;;10.70;99.90;;;;;;5064832;28;20225;-90
2023/03/26 11:02:26;;;;;;;1.00;0.90;;;10.70;99.90;;;;;;5060334;28;20236;-90
2023/03/26 11:05:27;;;;;;;1.83;1.20;;;10.80;99.90;;;;;;5056048;28;20213;-90
2023/03/26 11:08:10;;;;;;;2.07;1.33;;;11.10;99.90;;;;;;5002813;28;20195;-91
2023/03/26 11:11:44;;;;;;;1.17;0.80;;;11.30;99.90;;;;;;5092483;28;20176;-91
2023/03/26 11:14:34;;;;;;;2.07;1.60;;;11.70;99.90;;;;;;5026937;28;20193;-91
2023/03/26 11:17:21;;;;;;;2.00;1.17;;;12.00;99.90;;;;;;5040098;28;20252;-91
2023/03/26 11:19:55;;;;;;;1.17;1.07;;;12.00;99.90;;;;;;5071430;28;20269;-92
2023/03/26 11:22:32;;;;;;;1.47;0.93;;;12.10;99.90;;;;;;5059682;28;20269;-91
2023/03/26 11:25:10;;;;;;;2.00;1.10;;;12.20;99.90;;;;;;5075325;28;20218;-91
2023/03/26 11:28:16;;;;;;;2.60;1.40;;;12.10;99.90;;;;;;5063771;28;20188;-91
2023/03/26 11:31:06;;;;;;;1.70;0.97;;;11.90;99.90;;;;;;5079913;28;20194;-92
2023/03/26 11:33:42;;;;;;;1.70;1.30;;;11.90;99.90;;;;;;5075072;28;20239;-91
2023/03/26 11:36:16;;;;;;;2.93;0.90;;;12.10;99.90;;;;;;5060582;28;20228;-91
2023/03/26 11:38:54;;;;;;;1.57;0.70;;;12.40;99.90;;;;;;5075443;28;20172;-91
2023/03/26 11:41:54;;;;;;;1.30;1.00;;;12.50;99.90;;;;;;5058967;28;20214;-90
2023/03/26 11:44:31;;;;;;;1.37;0.80;;;12.60;99.90;;;;;;5086088;28;20182;-90
2023/03/26 11:47:03;;;;;;;1.33;1.00;;;12.70;99.90;;;;;;5076026;28;20232;-90
2023/03/26 11:49:30;;;;;;;2.13;0.90;;;12.90;99.90;;;;;;5059302;28;20197;-90
2023/03/26 11:52:00;;;;;;;1.77;0.87;;;13.00;99.90;;;;;;5075572;28;20176;-90
2023/03/26 11:54:26;;;;;;;2.50;1.10;;;12.90;99.90;;;;;;5058675;28;20277;-90
2023/03/26 11:56:57;;;;;;;1.53;0.80;;;13.10;99.90;;;;;;5093326;28;20644;-90
2023/03/26 11:59:31;;;;;;;2.47;1.30;;;13.00;99.90;;;;;;5050403;28;20180;-90
2023/03/26 12:02:15;;;;;;;1.70;1.00;;;13.10;99.90;;;;;;5058717;28;20203;-90
2023/03/26 12:04:44;;;;;;;1.90;0.90;;;13.10;99.90;;;;;;5058493;28;20242;-90
2023/03/26 12:07:33;;;;;;;1.53;0.80;;;12.70;99.90;;;;;;5059150;28;20173;-90
2023/03/26 12:10:00;;;;;;;1.67;1.10;;;12.50;99.90;;;;;;5058863;28;20170;-90
2023/03/26 12:12:30;;;;;;;3.33;2.17;;;12.60;99.90;;;;;;5059044;28;20184;-90
2023/03/26 12:14:59;;;;;;;2.80;1.20;;;12.80;99.90;;;;;;5063208;28;20295;-89
2023/03/26 12:17:25;;;;;;;3.53;1.17;;;13.00;99.90;;;;;;5094367;28;20183;-90
2023/03/26 12:19:51;;;;;;;4.77;2.27;;;13.20;99.90;;;;;;5075734;28;20613;-90
2023/03/26 12:22:40;;;;;;;1.47;1.10;;;13.30;99.90;;;;;;5075624;28;20266;-90
2023/03/26 12:25:26;;;;;;;2.70;1.00;;;13.50;99.90;;;;;;5075318;28;20197;-90
2023/03/26 12:28:04;;;;;;;2.93;1.27;;;13.60;99.90;;;;;;5074754;28;20172;-90
2023/03/26 12:30:38;;;;;;;2.83;1.00;;;13.60;99.90;;;;;;5065800;28;20176;-90
2023/03/26 12:33:17;;;;;;;3.27;0.90;;;13.70;99.90;;;;;;5068727;28;20179;-90
2023/03/26 12:35:43;;;;;;;1.93;0.87;;;13.80;99.90;;;;;;5074367;28;20192;-90
2023/03/26 12:38:31;;;;;;;2.00;0.90;;;13.90;99.90;;;;;;5073803;28;20183;-90
2023/03/26 12:41:10;;;;;;;3.60;1.00;;;14.00;99.90;;;;;;5057557;28;20180;-90
2023/03/26 12:43:47;;;;;;;1.80;0.80;;;14.00;99.90;;;;;;5073875;28;20236;-90
2023/03/26 12:47:06;;;;;;;2.20;0.90;;;13.90;99.90;;;;;;5073997;28;20207;-90
2023/03/26 12:49:32;;;;;;;1.87;0.90;;;14.00;99.90;;;;;;5056950;28;20262;-90
2023/03/26 12:52:37;;;;;;;2.27;0.90;;;14.10;99.90;;;;;;5057559;28;20235;-90
2023/03/26 12:55:23;;;;;;;1.57;0.80;;;14.10;99.90;;;;;;5074418;28;20223;-90
2023/03/26 12:58:37;;;;;;;2.37;1.03;;;14.20;99.90;;;;;;5090816;28;20187;-90
2023/03/26 13:01:15;;;;;;;2.47;1.00;;;14.40;99.90;;;;;;5057880;28;20177;-90
2023/03/26 13:04:02;;;;;;;2.00;0.80;;;14.50;99.90;;;;;;5092191;28;20199;-90
2023/03/26 13:06:40;;;;;;;2.67;0.80;;;14.40;99.90;;;;;;5080685;28;20200;-90
2023/03/26 13:09:46;;;;;;;2.70;1.10;;;14.30;99.90;;;;;;5075618;28;20176;-84
2023/03/26 13:12:29;;;;;;;3.17;1.43;;;14.30;99.90;;;;;;5053339;28;20259;-90
2023/03/26 13:15:06;;;;;;;3.50;1.50;;;14.20;99.90;;;;;;5074425;28;20203;-90
2023/03/26 13:17:47;;;;;;;2.47;0.90;;;14.00;99.90;;;;;;5091477;28;20176;-89
2023/03/26 13:20:45;;;;;;;1.57;0.90;;;13.70;99.90;;;;;;5057790;28;20180;-90
2023/03/26 13:23:41;;;;;;;1.77;0.93;;;13.40;99.90;;;;;;5066359;28;20209;-90
2023/03/26 13:26:15;;;;;;;3.63;1.00;;;13.50;99.90;;;;;;5070615;28;20247;-91
2023/03/26 13:29:20;;;;;;;1.70;0.83;;;13.90;99.90;;;;;;5076093;28;20187;-92
2023/03/26 13:32:07;;;;;;;1.80;0.90;;;14.30;99.90;;;;;;5074655;28;20180;-91
2023/03/26 13:37:53;;;;;;;2.17;0.90;;;14.70;99.90;;;;;;4989122;28;20330;-33
2023/03/26 13:40:54;;;;;;;1.60;0.80;;;15.00;99.90;;;;;;5007164;28;20176;-32
2023/03/26 13:43:57;;;;;;;3.57;0.83;;;15.00;99.90;;;;;;5000978;28;20238;-43
2023/03/26 13:46:49;;;;;;;1.50;1.00;;;14.70;99.90;;;;;;5008455;28;20210;-42
2023/03/26 13:49:39;;;;;;;3.10;1.30;;;14.60;99.90;;;;;;4987946;28;20272;-40
2023/03/26 13:52:23;;;;;;;3.30;1.30;;;14.40;99.90;;;;;;4998749;28;20253;-40
2023/03/26 13:54:59;;;;;;;1.83;1.23;;;14.00;99.90;;;;;;5000262;28;20193;-42
2023/03/26 13:57:32;;;;;;;4.47;1.00;;;13.50;99.90;;;;;;5010263;28;20186;-41
2023/03/26 14:00:00;;;;;;;2.30;1.20;;;13.30;99.90;;;;;;5006079;28;20322;-41
2023/03/26 14:02:40;;;;;;;2.70;1.47;;;13.30;99.90;;;;;;5012655;28;20214;-42
2023/03/26 14:05:19;;;;;;;2.23;1.27;;;13.20;99.90;;;;;;4973515;28;20263;-39
2023/03/26 14:08:03;;;;;;;2.27;0.83;;;13.40;99.90;;;;;;5009191;28;20262;-40
2023/03/26 14:10:41;;;;;;;1.90;0.90;;;13.70;99.90;;;;;;5009700;28;20198;-41
2023/03/26 14:13:28;;;;;;;4.23;1.00;;;13.70;99.90;;;;;;5010546;28;20236;-40
2023/03/26 14:16:02;;;;;;;1.57;0.80;;;13.80;99.90;;;;;;5029466;28;20179;-42
2023/03/26 14:18:44;;;;;;;2.87;1.20;;;13.60;99.90;;;;;;5007486;28;20175;-41
2023/03/26 14:21:32;;;;;;;2.03;1.13;;;13.50;99.90;;;;;;4999488;28;20182;-42
2023/03/26 14:24:36;;;;;;;2.37;0.80;;;13.40;99.90;;;;;;4996349;28;20199;-38
2023/03/26 14:27:32;;;;;;;3.27;0.90;;;13.50;99.90;;;;;;5012767;28;20233;-38
2023/03/26 14:30:23;;;;;;;3.50;1.00;;;13.60;99.90;;;;;;4996428;28;20210;-39
2023/03/26 14:32:58;;;;;;;2.83;0.73;;;13.30;99.90;;;;;;5013601;28;20292;-40
2023/03/26 14:35:56;;;;;;;2.70;0.97;;;13.00;99.90;;;;;;5012018;28;20182;-40
2023/03/26 14:38:40;;;;;;;2.50;0.87;;;12.90;99.90;;;;;;4994299;28;20187;-42
2023/03/26 14:41:28;;;;;;;2.13;1.30;;;12.80;99.90;;;;;;5011098;28;20179;-42
2023/03/26 14:44:03;;;;;;;1.30;0.73;;;12.70;99.90;;;;;;5011640;28;20257;-41
2023/03/26 14:46:40;;;;;;;3.37;0.93;;;12.50;99.90;;;;;;5004844;28;20265;-42
2023/03/26 14:49:27;;;;;;;4.10;1.00;;;12.40;99.90;;;;;;5013292;28;20197;-41
2023/03/26 14:52:23;;;;;;;3.43;0.90;;;12.20;99.90;;;;;;5027158;28;20185;-41
2023/03/26 14:54:54;;;;;;;3.00;1.17;;;12.10;99.90;;;;;;5011493;28;20281;-41
2023/03/26 14:57:47;;;;;;;3.07;0.90;;;12.00;99.90;;;;;;5003217;28;20233;-41
2023/03/26 15:00:54;;;;;;;2.13;0.90;;;11.80;99.90;;;;;;5011537;28;20200;-42
2023/03/26 15:03:38;;;;;;;2.47;0.97;;;11.50;99.90;;;;;;5001437;28;20270;-41
2023/03/26 15:06:19;;;;;;;2.20;0.90;;;11.40;99.90;;;;;;5012571;28;20176;-40
2023/03/26 15:08:57;;;;;;;2.17;1.00;;;11.20;99.90;;;;;;5012428;28;20288;-39
2023/03/26 15:11:42;;;;;;;1.87;1.17;;;11.10;99.90;;;;;;5011690;28;20195;-42
2023/03/26 15:15:10;;;;;;;2.40;0.97;;;11.00;99.90;;;;;;5004081;28;20207;-41
2023/03/26 15:17:58;;;;;;;1.57;0.80;;;10.80;99.90;;;;;;4995073;28;20204;-39
2023/03/26 15:21:12;;;;;;;3.17;1.00;;;10.50;99.90;;;;;;4994810;28;20239;-41
2023/03/26 15:23:46;;;;;;;2.37;1.00;;;9.90;99.90;;;;;;5010044;28;20663;-39
2023/03/26 15:26:35;;;;;;;4.23;1.90;;;9.50;99.90;;;;;;5018199;28;20223;-42
2023/03/26 15:29:18;;;;;;;3.40;1.50;;;9.20;99.90;;;;;;5011231;28;20209;-38
2023/03/26 15:32:03;;;;;;;2.13;1.07;;;9.10;99.90;;;;;;4994833;28;20646;-43
2023/03/26 15:34:47;;;;;;;3.80;1.37;;;8.90;99.90;;;;;;5012110;28;20187;-41
2023/03/26 15:37:21;;;;;;;2.13;1.10;;;8.80;99.90;;;;;;5010082;28;20600;-41